sensor_id;sensor_type;location;lat;lon;timestamp;temperature;humidity
74488;DHT22;63019;51.080;13.642;2022-11-11T00:00:37;9.30;94.80
74488;DHT22;63019;51.080;13.642;2022-11-11T00:01:39;9.30;94.80
74488;DHT22;63019;51.080;13.642;2022-11-11T00:02:41;9.30;94.80
74488;DHT22;63019;51.080;13.642;2022-11-11T00:03:45;9.30;94.90
74488;DHT22;63019;51.080;13.642;2022-11-11T00:04:47;9.30;94.80
74488;DHT22;63019;51.080;13.642;2022-11-11T00:05:49;9.30;94.80
74488;DHT22;63019;51.080;13.642;2022-11-11T00:06:51;9.30;94.90
74488;DHT22;63019;51.080;13.642;2022-11-11T00:07:55;9.30;94.90
74488;DHT22;63019;51.080;13.642;2022-11-11T00:09:00;9.30;95.00
74488;DHT22;63019;51.080;13.642;2022-11-11T00:10:02;9.30;94.80
74488;DHT22;63019;51.080;13.642;2022-11-11T00:11:07;9.30;95.20
74488;DHT22;63019;51.080;13.642;2022-11-11T00:12:09;9.30;94.80
74488;DHT22;63019;51.080;13.642;2022-11-11T00:13:11;9.30;94.90
74488;DHT22;63019;51.080;13.642;2022-11-11T00:14:13;9.30;94.90
74488;DHT22;63019;51.080;13.642;2022-11-11T00:15:15;9.30;94.70
74488;DHT22;63019;51.080;13.642;2022-11-11T00:16:18;9.30;94.80
74488;DHT22;63019;51.080;13.642;2022-11-11T00:17:20;9.30;94.90
74488;DHT22;63019;51.080;13.642;2022-11-11T00:18:41;9.30;94.90
74488;DHT22;63019;51.080;13.642;2022-11-11T00:20:02;9.30;94.80
74488;DHT22;63019;51.080;13.642;2022-11-11T00:21:26;9.30;94.80
74488;DHT22;63019;51.080;13.642;2022-11-11T00:22:46;9.40;94.90
74488;DHT22;63019;51.080;13.642;2022-11-11T00:24:28;9.40;94.80
74488;DHT22;63019;51.080;13.642;2022-11-11T00:25:52;9.30;94.90
74488;DHT22;63019;51.080;13.642;2022-11-11T00:27:14;9.30;94.80
74488;DHT22;63019;51.080;13.642;2022-11-11T00:28:18;9.30;94.90
74488;DHT22;63019;51.080;13.642;2022-11-11T00:29:20;9.30;95.00
74488;DHT22;63019;51.080;13.642;2022-11-11T00:30:22;9.30;95.00
74488;DHT22;63019;51.080;13.642;2022-11-11T00:31:24;9.30;94.90
74488;DHT22;63019;51.080;13.642;2022-11-11T00:32:26;9.30;94.90
74488;DHT22;63019;51.080;13.642;2022-11-11T00:33:29;9.30;94.90
74488;DHT22;63019;51.080;13.642;2022-11-11T00:34:31;9.30;94.70
74488;DHT22;63019;51.080;13.642;2022-11-11T00:35:33;9.30;94.80
74488;DHT22;63019;51.080;13.642;2022-11-11T00:36:53;9.30;94.90
74488;DHT22;63019;51.080;13.642;2022-11-11T00:38:06;9.30;94.90
74488;DHT22;63019;51.080;13.642;2022-11-11T00:39:08;9.40;94.90
74488;DHT22;63019;51.080;13.642;2022-11-11T00:40:10;9.40;94.80
74488;DHT22;63019;51.080;13.642;2022-11-11T00:41:32;9.40;94.70
74488;DHT22;63019;51.080;13.642;2022-11-11T00:42:34;9.40;94.80
74488;DHT22;63019;51.080;13.642;2022-11-11T00:43:36;9.40;94.60
74488;DHT22;63019;51.080;13.642;2022-11-11T00:44:37;9.50;94.60
74488;DHT22;63019;51.080;13.642;2022-11-11T00:45:39;9.40;94.50
74488;DHT22;63019;51.080;13.642;2022-11-11T00:46:41;9.40;94.50
74488;DHT22;63019;51.080;13.642;2022-11-11T00:48:01;9.40;94.70
74488;DHT22;63019;51.080;13.642;2022-11-11T00:49:38;9.40;94.70
74488;DHT22;63019;51.080;13.642;2022-11-11T00:50:59;9.40;94.80
74488;DHT22;63019;51.080;13.642;2022-11-11T00:52:00;9.30;94.70
74488;DHT22;63019;51.080;13.642;2022-11-11T00:53:03;9.30;94.80
74488;DHT22;63019;51.080;13.642;2022-11-11T00:54:06;9.30;94.80
74488;DHT22;63019;51.080;13.642;2022-11-11T00:55:07;9.40;94.80
74488;DHT22;63019;51.080;13.642;2022-11-11T00:56:09;9.40;94.70
74488;DHT22;63019;51.080;13.642;2022-11-11T00:57:11;9.40;94.70
74488;DHT22;63019;51.080;13.642;2022-11-11T00:58:13;9.40;94.70
74488;DHT22;63019;51.080;13.642;2022-11-11T00:59:17;9.40;94.70
74488;DHT22;63019;51.080;13.642;2022-11-11T01:00:19;9.50;94.60
74488;DHT22;63019;51.080;13.642;2022-11-11T01:01:21;9.50;94.50
74488;DHT22;63019;51.080;13.642;2022-11-11T01:02:23;9.50;94.60
74488;DHT22;63019;51.080;13.642;2022-11-11T01:03:25;9.50;94.40
74488;DHT22;63019;51.080;13.642;2022-11-11T01:04:28;9.60;94.50
74488;DHT22;63019;51.080;13.642;2022-11-11T01:05:30;9.50;94.40
74488;DHT22;63019;51.080;13.642;2022-11-11T01:06:32;9.50;94.50
74488;DHT22;63019;51.080;13.642;2022-11-11T01:07:33;9.50;94.30
74488;DHT22;63019;51.080;13.642;2022-11-11T01:08:36;9.40;94.40
74488;DHT22;63019;51.080;13.642;2022-11-11T01:09:37;9.40;94.30
74488;DHT22;63019;51.080;13.642;2022-11-11T01:10:39;9.40;94.30
74488;DHT22;63019;51.080;13.642;2022-11-11T01:11:45;9.30;94.60
74488;DHT22;63019;51.080;13.642;2022-11-11T01:12:47;9.30;94.40
74488;DHT22;63019;51.080;13.642;2022-11-11T01:13:49;9.20;94.30
74488;DHT22;63019;51.080;13.642;2022-11-11T01:14:51;9.10;94.50
74488;DHT22;63019;51.080;13.642;2022-11-11T01:16:00;9.00;94.50
74488;DHT22;63019;51.080;13.642;2022-11-11T01:17:02;9.00;94.80
74488;DHT22;63019;51.080;13.642;2022-11-11T01:18:06;8.90;94.80
74488;DHT22;63019;51.080;13.642;2022-11-11T01:19:08;8.90;94.90
74488;DHT22;63019;51.080;13.642;2022-11-11T01:20:10;8.90;95.00
74488;DHT22;63019;51.080;13.642;2022-11-11T01:21:15;8.90;95.00
74488;DHT22;63019;51.080;13.642;2022-11-11T01:22:17;8.80;95.10
74488;DHT22;63019;51.080;13.642;2022-11-11T01:23:19;8.80;95.00
74488;DHT22;63019;51.080;13.642;2022-11-11T01:24:21;8.80;95.10
74488;DHT22;63019;51.080;13.642;2022-11-11T01:25:23;8.70;95.00
74488;DHT22;63019;51.080;13.642;2022-11-11T01:26:26;8.70;95.10
74488;DHT22;63019;51.080;13.642;2022-11-11T01:27:33;8.70;95.20
74488;DHT22;63019;51.080;13.642;2022-11-11T01:28:35;8.60;95.30
74488;DHT22;63019;51.080;13.642;2022-11-11T01:29:37;8.50;95.30
74488;DHT22;63019;51.080;13.642;2022-11-11T01:30:38;8.50;95.40
74488;DHT22;63019;51.080;13.642;2022-11-11T01:31:40;8.50;95.50
74488;DHT22;63019;51.080;13.642;2022-11-11T01:32:42;8.50;95.60
74488;DHT22;63019;51.080;13.642;2022-11-11T01:33:44;8.50;95.70
74488;DHT22;63019;51.080;13.642;2022-11-11T01:34:45;8.40;95.60
74488;DHT22;63019;51.080;13.642;2022-11-11T01:35:47;8.40;95.60
74488;DHT22;63019;51.080;13.642;2022-11-11T01:36:49;8.40;95.60
74488;DHT22;63019;51.080;13.642;2022-11-11T01:37:51;8.40;95.80
74488;DHT22;63019;51.080;13.642;2022-11-11T01:38:56;8.50;95.80
74488;DHT22;63019;51.080;13.642;2022-11-11T01:39:58;8.50;95.80
74488;DHT22;63019;51.080;13.642;2022-11-11T01:41:00;8.50;95.70
74488;DHT22;63019;51.080;13.642;2022-11-11T01:42:22;8.50;95.80
74488;DHT22;63019;51.080;13.642;2022-11-11T01:43:24;8.50;95.90
74488;DHT22;63019;51.080;13.642;2022-11-11T01:44:45;8.60;95.80
74488;DHT22;63019;51.080;13.642;2022-11-11T01:45:55;8.60;95.60
74488;DHT22;63019;51.080;13.642;2022-11-11T01:47:01;8.60;95.80
74488;DHT22;63019;51.080;13.642;2022-11-11T01:48:07;8.60;95.80
74488;DHT22;63019;51.080;13.642;2022-11-11T01:49:48;8.70;95.90
74488;DHT22;63019;51.080;13.642;2022-11-11T01:50:51;8.70;95.70
74488;DHT22;63019;51.080;13.642;2022-11-11T01:52:09;8.70;95.50
74488;DHT22;63019;51.080;13.642;2022-11-11T01:53:13;8.60;95.30
74488;DHT22;63019;51.080;13.642;2022-11-11T01:54:23;8.50;95.10
74488;DHT22;63019;51.080;13.642;2022-11-11T01:55:27;8.50;95.30
74488;DHT22;63019;51.080;13.642;2022-11-11T01:56:29;8.50;95.60
74488;DHT22;63019;51.080;13.642;2022-11-11T01:57:41;8.40;95.60
74488;DHT22;63019;51.080;13.642;2022-11-11T01:58:46;8.40;95.70
74488;DHT22;63019;51.080;13.642;2022-11-11T01:59:50;8.40;95.70
74488;DHT22;63019;51.080;13.642;2022-11-11T02:00:55;8.30;95.60
74488;DHT22;63019;51.080;13.642;2022-11-11T02:01:58;8.30;95.90
74488;DHT22;63019;51.080;13.642;2022-11-11T02:03:05;8.30;96.20
74488;DHT22;63019;51.080;13.642;2022-11-11T02:04:08;8.40;96.20
74488;DHT22;63019;51.080;13.642;2022-11-11T02:05:49;8.40;95.90
74488;DHT22;63019;51.080;13.642;2022-11-11T02:06:59;8.40;95.90
74488;DHT22;63019;51.080;13.642;2022-11-11T02:08:25;8.30;96.00
74488;DHT22;63019;51.080;13.642;2022-11-11T02:09:36;8.30;95.90
74488;DHT22;63019;51.080;13.642;2022-11-11T02:10:43;8.30;95.90
74488;DHT22;63019;51.080;13.642;2022-11-11T02:11:46;8.30;96.00
74488;DHT22;63019;51.080;13.642;2022-11-11T02:13:12;8.40;96.10
74488;DHT22;63019;51.080;13.642;2022-11-11T02:14:40;8.40;96.00
74488;DHT22;63019;51.080;13.642;2022-11-11T02:15:44;8.40;96.10
74488;DHT22;63019;51.080;13.642;2022-11-11T02:16:46;8.40;96.00
74488;DHT22;63019;51.080;13.642;2022-11-11T02:17:48;8.40;95.90
74488;DHT22;63019;51.080;13.642;2022-11-11T02:18:51;8.40;95.90
74488;DHT22;63019;51.080;13.642;2022-11-11T02:19:58;8.40;95.90
74488;DHT22;63019;51.080;13.642;2022-11-11T02:21:02;8.40;95.80
74488;DHT22;63019;51.080;13.642;2022-11-11T02:22:07;8.40;95.80
74488;DHT22;63019;51.080;13.642;2022-11-11T02:24:17;8.40;95.80
74488;DHT22;63019;51.080;13.642;2022-11-11T02:25:23;8.40;95.70
74488;DHT22;63019;51.080;13.642;2022-11-11T02:26:27;8.40;95.80
74488;DHT22;63019;51.080;13.642;2022-11-11T02:27:31;8.40;95.80
74488;DHT22;63019;51.080;13.642;2022-11-11T02:28:37;8.50;95.90
74488;DHT22;63019;51.080;13.642;2022-11-11T02:29:40;8.50;95.80
74488;DHT22;63019;51.080;13.642;2022-11-11T02:30:42;8.50;95.80
74488;DHT22;63019;51.080;13.642;2022-11-11T02:31:44;8.60;95.80
74488;DHT22;63019;51.080;13.642;2022-11-11T02:32:48;8.60;95.80
74488;DHT22;63019;51.080;13.642;2022-11-11T02:33:50;8.50;95.80
74488;DHT22;63019;51.080;13.642;2022-11-11T02:34:52;8.60;95.90
74488;DHT22;63019;51.080;13.642;2022-11-11T02:35:56;8.60;95.80
74488;DHT22;63019;51.080;13.642;2022-11-11T02:37:00;8.60;95.60
74488;DHT22;63019;51.080;13.642;2022-11-11T02:38:05;8.50;95.50
74488;DHT22;63019;51.080;13.642;2022-11-11T02:39:09;8.50;95.70
74488;DHT22;63019;51.080;13.642;2022-11-11T02:40:17;8.50;95.60
74488;DHT22;63019;51.080;13.642;2022-11-11T02:41:21;8.50;95.50
74488;DHT22;63019;51.080;13.642;2022-11-11T02:42:41;8.40;95.80
74488;DHT22;63019;51.080;13.642;2022-11-11T02:43:43;8.40;95.60
74488;DHT22;63019;51.080;13.642;2022-11-11T02:44:45;8.40;95.70
74488;DHT22;63019;51.080;13.642;2022-11-11T02:45:47;8.40;95.80
74488;DHT22;63019;51.080;13.642;2022-11-11T02:46:49;8.40;95.70
74488;DHT22;63019;51.080;13.642;2022-11-11T02:47:51;8.40;95.70
74488;DHT22;63019;51.080;13.642;2022-11-11T02:48:53;8.30;95.80
74488;DHT22;63019;51.080;13.642;2022-11-11T02:49:54;8.40;95.80
74488;DHT22;63019;51.080;13.642;2022-11-11T02:50:56;8.30;95.70
74488;DHT22;63019;51.080;13.642;2022-11-11T02:51:58;8.30;95.70
74488;DHT22;63019;51.080;13.642;2022-11-11T02:53:00;8.30;96.00
74488;DHT22;63019;51.080;13.642;2022-11-11T02:54:02;8.30;96.40
74488;DHT22;63019;51.080;13.642;2022-11-11T02:55:05;8.40;95.90
74488;DHT22;63019;51.080;13.642;2022-11-11T02:56:07;8.40;95.80
74488;DHT22;63019;51.080;13.642;2022-11-11T02:57:09;8.30;95.70
74488;DHT22;63019;51.080;13.642;2022-11-11T02:58:12;8.40;96.00
74488;DHT22;63019;51.080;13.642;2022-11-11T02:59:14;8.40;95.70
74488;DHT22;63019;51.080;13.642;2022-11-11T03:00:16;8.40;95.60
74488;DHT22;63019;51.080;13.642;2022-11-11T03:01:18;8.30;95.70
74488;DHT22;63019;51.080;13.642;2022-11-11T03:02:24;8.30;95.60
74488;DHT22;63019;51.080;13.642;2022-11-11T03:03:29;8.30;95.90
74488;DHT22;63019;51.080;13.642;2022-11-11T03:04:32;8.20;95.80
74488;DHT22;63019;51.080;13.642;2022-11-11T03:05:35;8.20;95.90
74488;DHT22;63019;51.080;13.642;2022-11-11T03:06:37;8.10;95.80
74488;DHT22;63019;51.080;13.642;2022-11-11T03:07:39;8.10;95.90
74488;DHT22;63019;51.080;13.642;2022-11-11T03:08:40;8.10;95.90
74488;DHT22;63019;51.080;13.642;2022-11-11T03:09:42;8.10;95.80
74488;DHT22;63019;51.080;13.642;2022-11-11T03:10:44;8.00;95.90
74488;DHT22;63019;51.080;13.642;2022-11-11T03:11:46;8.00;96.10
74488;DHT22;63019;51.080;13.642;2022-11-11T03:12:48;8.00;96.10
74488;DHT22;63019;51.080;13.642;2022-11-11T03:13:50;8.10;96.20
74488;DHT22;63019;51.080;13.642;2022-11-11T03:14:52;8.10;96.30
74488;DHT22;63019;51.080;13.642;2022-11-11T03:15:55;8.10;96.30
74488;DHT22;63019;51.080;13.642;2022-11-11T03:16:57;8.20;96.30
74488;DHT22;63019;51.080;13.642;2022-11-11T03:18:17;8.20;96.20
74488;DHT22;63019;51.080;13.642;2022-11-11T03:19:19;8.20;96.20
74488;DHT22;63019;51.080;13.642;2022-11-11T03:20:21;8.30;96.10
74488;DHT22;63019;51.080;13.642;2022-11-11T03:21:42;8.30;96.20
74488;DHT22;63019;51.080;13.642;2022-11-11T03:23:09;8.30;96.10
74488;DHT22;63019;51.080;13.642;2022-11-11T03:24:11;8.40;96.00
74488;DHT22;63019;51.080;13.642;2022-11-11T03:25:13;8.40;95.90
74488;DHT22;63019;51.080;13.642;2022-11-11T03:26:33;8.40;95.90
74488;DHT22;63019;51.080;13.642;2022-11-11T03:27:35;8.40;95.90
74488;DHT22;63019;51.080;13.642;2022-11-11T03:28:37;8.30;95.70
74488;DHT22;63019;51.080;13.642;2022-11-11T03:29:38;8.20;95.70
74488;DHT22;63019;51.080;13.642;2022-11-11T03:30:42;8.20;95.50
74488;DHT22;63019;51.080;13.642;2022-11-11T03:31:44;8.10;95.60
74488;DHT22;63019;51.080;13.642;2022-11-11T03:32:46;8.00;95.50
74488;DHT22;63019;51.080;13.642;2022-11-11T03:33:47;7.90;95.60
74488;DHT22;63019;51.080;13.642;2022-11-11T03:34:49;7.90;95.90
74488;DHT22;63019;51.080;13.642;2022-11-11T03:35:51;7.80;96.00
74488;DHT22;63019;51.080;13.642;2022-11-11T03:36:53;7.80;96.00
74488;DHT22;63019;51.080;13.642;2022-11-11T03:38:13;7.80;96.20
74488;DHT22;63019;51.080;13.642;2022-11-11T03:39:33;7.80;96.20
74488;DHT22;63019;51.080;13.642;2022-11-11T03:40:35;7.70;96.10
74488;DHT22;63019;51.080;13.642;2022-11-11T03:41:36;7.70;96.00
74488;DHT22;63019;51.080;13.642;2022-11-11T03:42:38;7.70;95.90
74488;DHT22;63019;51.080;13.642;2022-11-11T03:43:42;7.70;96.00
74488;DHT22;63019;51.080;13.642;2022-11-11T03:44:44;7.70;96.00
74488;DHT22;63019;51.080;13.642;2022-11-11T03:45:46;7.60;96.10
74488;DHT22;63019;51.080;13.642;2022-11-11T03:46:48;7.60;96.10
74488;DHT22;63019;51.080;13.642;2022-11-11T03:47:50;7.60;96.10
74488;DHT22;63019;51.080;13.642;2022-11-11T03:48:52;7.50;96.10
74488;DHT22;63019;51.080;13.642;2022-11-11T03:49:53;7.50;96.20
74488;DHT22;63019;51.080;13.642;2022-11-11T03:50:55;7.50;96.20
74488;DHT22;63019;51.080;13.642;2022-11-11T03:51:57;7.50;96.30
74488;DHT22;63019;51.080;13.642;2022-11-11T03:52:59;7.50;96.30
74488;DHT22;63019;51.080;13.642;2022-11-11T03:54:01;7.40;96.30
74488;DHT22;63019;51.080;13.642;2022-11-11T03:55:03;7.40;96.40
74488;DHT22;63019;51.080;13.642;2022-11-11T03:56:05;7.40;96.40
74488;DHT22;63019;51.080;13.642;2022-11-11T03:57:07;7.40;96.50
74488;DHT22;63019;51.080;13.642;2022-11-11T03:58:27;7.30;96.60
74488;DHT22;63019;51.080;13.642;2022-11-11T03:59:29;7.30;96.60
74488;DHT22;63019;51.080;13.642;2022-11-11T04:00:31;7.30;96.60
74488;DHT22;63019;51.080;13.642;2022-11-11T04:01:32;7.30;96.60
74488;DHT22;63019;51.080;13.642;2022-11-11T04:03:10;7.20;96.70
74488;DHT22;63019;51.080;13.642;2022-11-11T04:04:30;7.20;96.90
74488;DHT22;63019;51.080;13.642;2022-11-11T04:05:51;7.20;96.80
74488;DHT22;63019;51.080;13.642;2022-11-11T04:07:22;7.20;96.80
74488;DHT22;63019;51.080;13.642;2022-11-11T04:08:43;7.10;96.90
74488;DHT22;63019;51.080;13.642;2022-11-11T04:10:03;7.10;97.10
74488;DHT22;63019;51.080;13.642;2022-11-11T04:11:32;7.10;97.10
74488;DHT22;63019;51.080;13.642;2022-11-11T04:12:35;7.00;97.10
74488;DHT22;63019;51.080;13.642;2022-11-11T04:14:00;7.00;97.10
74488;DHT22;63019;51.080;13.642;2022-11-11T04:15:22;7.00;97.10
74488;DHT22;63019;51.080;13.642;2022-11-11T04:16:42;7.00;97.30
74488;DHT22;63019;51.080;13.642;2022-11-11T04:17:44;6.90;97.40
74488;DHT22;63019;51.080;13.642;2022-11-11T04:18:45;6.90;97.40
74488;DHT22;63019;51.080;13.642;2022-11-11T04:20:13;6.90;97.40
74488;DHT22;63019;51.080;13.642;2022-11-11T04:21:34;6.90;97.50
74488;DHT22;63019;51.080;13.642;2022-11-11T04:22:45;6.90;97.50
74488;DHT22;63019;51.080;13.642;2022-11-11T04:23:47;6.80;97.50
74488;DHT22;63019;51.080;13.642;2022-11-11T04:24:49;6.80;97.40
74488;DHT22;63019;51.080;13.642;2022-11-11T04:26:09;6.80;97.50
74488;DHT22;63019;51.080;13.642;2022-11-11T04:27:12;6.80;97.50
74488;DHT22;63019;51.080;13.642;2022-11-11T04:28:14;6.80;97.70
74488;DHT22;63019;51.080;13.642;2022-11-11T04:29:35;6.80;97.70
74488;DHT22;63019;51.080;13.642;2022-11-11T04:30:36;6.90;98.00
74488;DHT22;63019;51.080;13.642;2022-11-11T04:31:38;6.90;97.90
74488;DHT22;63019;51.080;13.642;2022-11-11T04:33:00;6.90;98.00
74488;DHT22;63019;51.080;13.642;2022-11-11T04:34:02;6.90;97.70
74488;DHT22;63019;51.080;13.642;2022-11-11T04:35:08;7.00;98.00
74488;DHT22;63019;51.080;13.642;2022-11-11T04:36:10;7.10;98.20
74488;DHT22;63019;51.080;13.642;2022-11-11T04:37:13;7.10;97.70
74488;DHT22;63019;51.080;13.642;2022-11-11T04:38:15;7.20;97.80
74488;DHT22;63019;51.080;13.642;2022-11-11T04:39:35;7.20;97.40
74488;DHT22;63019;51.080;13.642;2022-11-11T04:40:55;7.20;97.60
74488;DHT22;63019;51.080;13.642;2022-11-11T04:42:09;7.20;97.20
74488;DHT22;63019;51.080;13.642;2022-11-11T04:43:10;7.20;97.30
74488;DHT22;63019;51.080;13.642;2022-11-11T04:44:12;7.10;96.90
74488;DHT22;63019;51.080;13.642;2022-11-11T04:45:32;7.10;97.00
74488;DHT22;63019;51.080;13.642;2022-11-11T04:46:36;7.10;97.10
74488;DHT22;63019;51.080;13.642;2022-11-11T04:48:00;7.00;96.90
74488;DHT22;63019;51.080;13.642;2022-11-11T04:49:03;6.90;97.10
74488;DHT22;63019;51.080;13.642;2022-11-11T04:50:05;6.80;97.20
74488;DHT22;63019;51.080;13.642;2022-11-11T04:51:08;6.80;97.30
74488;DHT22;63019;51.080;13.642;2022-11-11T04:52:10;6.70;97.50
74488;DHT22;63019;51.080;13.642;2022-11-11T04:53:26;6.70;97.70
74488;DHT22;63019;51.080;13.642;2022-11-11T04:54:28;6.60;97.80
74488;DHT22;63019;51.080;13.642;2022-11-11T04:55:50;6.60;97.80
74488;DHT22;63019;51.080;13.642;2022-11-11T04:57:10;6.60;98.10
74488;DHT22;63019;51.080;13.642;2022-11-11T04:58:12;6.60;97.90
74488;DHT22;63019;51.080;13.642;2022-11-11T04:59:17;6.60;97.70
74488;DHT22;63019;51.080;13.642;2022-11-11T05:00:20;6.60;97.80
74488;DHT22;63019;51.080;13.642;2022-11-11T05:01:22;6.60;97.80
74488;DHT22;63019;51.080;13.642;2022-11-11T05:02:43;6.60;98.00
74488;DHT22;63019;51.080;13.642;2022-11-11T05:04:03;6.50;98.00
74488;DHT22;63019;51.080;13.642;2022-11-11T05:05:05;6.60;97.90
74488;DHT22;63019;51.080;13.642;2022-11-11T05:06:07;6.50;97.90
74488;DHT22;63019;51.080;13.642;2022-11-11T05:07:28;6.50;98.00
74488;DHT22;63019;51.080;13.642;2022-11-11T05:08:48;6.50;97.90
74488;DHT22;63019;51.080;13.642;2022-11-11T05:09:56;6.60;97.70
74488;DHT22;63019;51.080;13.642;2022-11-11T05:10:58;6.60;97.60
74488;DHT22;63019;51.080;13.642;2022-11-11T05:12:00;6.60;97.60
74488;DHT22;63019;51.080;13.642;2022-11-11T05:13:03;6.60;97.60
74488;DHT22;63019;51.080;13.642;2022-11-11T05:14:24;6.50;97.60
74488;DHT22;63019;51.080;13.642;2022-11-11T05:15:45;6.40;97.80
74488;DHT22;63019;51.080;13.642;2022-11-11T05:17:07;6.40;98.00
74488;DHT22;63019;51.080;13.642;2022-11-11T05:18:28;6.40;97.80
74488;DHT22;63019;51.080;13.642;2022-11-11T05:19:48;6.40;98.10
74488;DHT22;63019;51.080;13.642;2022-11-11T05:21:27;6.30;98.30
74488;DHT22;63019;51.080;13.642;2022-11-11T05:22:31;6.30;98.50
74488;DHT22;63019;51.080;13.642;2022-11-11T05:23:33;6.30;98.20
74488;DHT22;63019;51.080;13.642;2022-11-11T05:24:54;6.30;98.50
74488;DHT22;63019;51.080;13.642;2022-11-11T05:26:14;6.20;98.40
74488;DHT22;63019;51.080;13.642;2022-11-11T05:27:16;6.20;98.30
74488;DHT22;63019;51.080;13.642;2022-11-11T05:28:22;6.20;98.20
74488;DHT22;63019;51.080;13.642;2022-11-11T05:29:24;6.20;98.30
74488;DHT22;63019;51.080;13.642;2022-11-11T05:30:25;6.20;98.40
74488;DHT22;63019;51.080;13.642;2022-11-11T05:31:28;6.20;98.40
74488;DHT22;63019;51.080;13.642;2022-11-11T05:32:30;6.20;98.30
74488;DHT22;63019;51.080;13.642;2022-11-11T05:33:32;6.20;98.40
74488;DHT22;63019;51.080;13.642;2022-11-11T05:34:34;6.20;98.20
74488;DHT22;63019;51.080;13.642;2022-11-11T05:35:35;6.20;98.30
74488;DHT22;63019;51.080;13.642;2022-11-11T05:36:37;6.20;98.30
74488;DHT22;63019;51.080;13.642;2022-11-11T05:37:39;6.20;98.30
74488;DHT22;63019;51.080;13.642;2022-11-11T05:38:41;6.20;98.40
74488;DHT22;63019;51.080;13.642;2022-11-11T05:39:43;6.20;98.40
74488;DHT22;63019;51.080;13.642;2022-11-11T05:40:45;6.20;98.40
74488;DHT22;63019;51.080;13.642;2022-11-11T05:41:47;6.20;98.20
74488;DHT22;63019;51.080;13.642;2022-11-11T05:42:49;6.20;98.10
74488;DHT22;63019;51.080;13.642;2022-11-11T05:43:55;6.20;98.30
74488;DHT22;63019;51.080;13.642;2022-11-11T05:44:57;6.20;98.30
74488;DHT22;63019;51.080;13.642;2022-11-11T05:45:58;6.20;98.30
74488;DHT22;63019;51.080;13.642;2022-11-11T05:47:00;6.30;98.30
74488;DHT22;63019;51.080;13.642;2022-11-11T05:48:02;6.30;98.30
74488;DHT22;63019;51.080;13.642;2022-11-11T05:49:04;6.30;98.40
74488;DHT22;63019;51.080;13.642;2022-11-11T05:50:18;6.30;98.40
74488;DHT22;63019;51.080;13.642;2022-11-11T05:51:19;6.30;98.20
74488;DHT22;63019;51.080;13.642;2022-11-11T05:52:28;6.30;98.20
74488;DHT22;63019;51.080;13.642;2022-11-11T05:53:30;6.40;98.30
74488;DHT22;63019;51.080;13.642;2022-11-11T05:54:34;6.40;98.30
74488;DHT22;63019;51.080;13.642;2022-11-11T05:55:36;6.40;98.20
74488;DHT22;63019;51.080;13.642;2022-11-11T05:56:38;6.40;98.20
74488;DHT22;63019;51.080;13.642;2022-11-11T05:57:40;6.40;98.10
74488;DHT22;63019;51.080;13.642;2022-11-11T05:58:42;6.40;98.20
74488;DHT22;63019;51.080;13.642;2022-11-11T05:59:50;6.50;98.30
74488;DHT22;63019;51.080;13.642;2022-11-11T06:00:51;6.50;98.10
74488;DHT22;63019;51.080;13.642;2022-11-11T06:01:54;6.50;98.10
74488;DHT22;63019;51.080;13.642;2022-11-11T06:03:03;6.50;98.00
74488;DHT22;63019;51.080;13.642;2022-11-11T06:04:06;6.50;98.00
74488;DHT22;63019;51.080;13.642;2022-11-11T06:05:08;6.50;98.00
74488;DHT22;63019;51.080;13.642;2022-11-11T06:06:11;6.40;98.00
74488;DHT22;63019;51.080;13.642;2022-11-11T06:07:13;6.40;97.90
74488;DHT22;63019;51.080;13.642;2022-11-11T06:08:14;6.40;98.00
74488;DHT22;63019;51.080;13.642;2022-11-11T06:09:16;6.40;98.00
74488;DHT22;63019;51.080;13.642;2022-11-11T06:10:18;6.40;97.90
74488;DHT22;63019;51.080;13.642;2022-11-11T06:11:32;6.40;97.80
74488;DHT22;63019;51.080;13.642;2022-11-11T06:12:41;6.40;97.70
74488;DHT22;63019;51.080;13.642;2022-11-11T06:14:02;6.50;97.70
74488;DHT22;63019;51.080;13.642;2022-11-11T06:15:04;6.50;97.70
74488;DHT22;63019;51.080;13.642;2022-11-11T06:16:07;6.40;97.70
74488;DHT22;63019;51.080;13.642;2022-11-11T06:17:09;6.40;97.90
74488;DHT22;63019;51.080;13.642;2022-11-11T06:18:10;6.40;97.80
74488;DHT22;63019;51.080;13.642;2022-11-11T06:19:12;6.40;97.80
74488;DHT22;63019;51.080;13.642;2022-11-11T06:20:14;6.40;97.70
74488;DHT22;63019;51.080;13.642;2022-11-11T06:21:16;6.40;97.60
74488;DHT22;63019;51.080;13.642;2022-11-11T06:22:18;6.40;97.70
74488;DHT22;63019;51.080;13.642;2022-11-11T06:23:40;6.40;97.40
74488;DHT22;63019;51.080;13.642;2022-11-11T06:24:41;6.30;97.60
74488;DHT22;63019;51.080;13.642;2022-11-11T06:25:43;6.30;97.60
74488;DHT22;63019;51.080;13.642;2022-11-11T06:27:04;6.30;97.80
74488;DHT22;63019;51.080;13.642;2022-11-11T06:28:06;6.20;97.70
74488;DHT22;63019;51.080;13.642;2022-11-11T06:29:07;6.20;97.80
74488;DHT22;63019;51.080;13.642;2022-11-11T06:30:09;6.20;97.80
74488;DHT22;63019;51.080;13.642;2022-11-11T06:31:31;6.20;97.80
74488;DHT22;63019;51.080;13.642;2022-11-11T06:32:33;6.20;98.10
74488;DHT22;63019;51.080;13.642;2022-11-11T06:33:36;6.20;97.90
74488;DHT22;63019;51.080;13.642;2022-11-11T06:34:38;6.20;97.80
74488;DHT22;63019;51.080;13.642;2022-11-11T06:35:42;6.10;97.90
74488;DHT22;63019;51.080;13.642;2022-11-11T06:36:44;6.10;97.90
74488;DHT22;63019;51.080;13.642;2022-11-11T06:37:46;6.10;97.80
74488;DHT22;63019;51.080;13.642;2022-11-11T06:38:48;6.00;98.00
74488;DHT22;63019;51.080;13.642;2022-11-11T06:39:49;6.00;98.00
74488;DHT22;63019;51.080;13.642;2022-11-11T06:40:51;6.00;98.00
74488;DHT22;63019;51.080;13.642;2022-11-11T06:41:53;6.00;98.10
74488;DHT22;63019;51.080;13.642;2022-11-11T06:42:58;6.00;98.10
74488;DHT22;63019;51.080;13.642;2022-11-11T06:44:00;6.00;98.40
74488;DHT22;63019;51.080;13.642;2022-11-11T06:45:01;6.00;98.10
74488;DHT22;63019;51.080;13.642;2022-11-11T06:46:03;6.00;98.20
74488;DHT22;63019;51.080;13.642;2022-11-11T06:47:05;6.00;98.20
74488;DHT22;63019;51.080;13.642;2022-11-11T06:48:07;6.00;98.20
74488;DHT22;63019;51.080;13.642;2022-11-11T06:49:09;6.00;98.30
74488;DHT22;63019;51.080;13.642;2022-11-11T06:50:11;6.00;98.10
74488;DHT22;63019;51.080;13.642;2022-11-11T06:51:13;6.10;98.30
74488;DHT22;63019;51.080;13.642;2022-11-11T06:52:15;6.10;98.30
74488;DHT22;63019;51.080;13.642;2022-11-11T06:53:18;6.10;98.20
74488;DHT22;63019;51.080;13.642;2022-11-11T06:54:20;6.10;98.30
74488;DHT22;63019;51.080;13.642;2022-11-11T06:55:22;6.10;98.40
74488;DHT22;63019;51.080;13.642;2022-11-11T06:56:24;6.10;98.40
74488;DHT22;63019;51.080;13.642;2022-11-11T06:57:26;6.10;98.40
74488;DHT22;63019;51.080;13.642;2022-11-11T06:58:27;6.10;98.70
74488;DHT22;63019;51.080;13.642;2022-11-11T06:59:29;6.10;98.30
74488;DHT22;63019;51.080;13.642;2022-11-11T07:00:31;6.10;98.30